MiSS Carolyn — WDC8397 — position and weather

sailwx.info

Track history (hours):
 
Tides and Currents Weather Stations Pressure Air Temp Water Temp Dewpoint Dewpoint Depression Visibility Wind Speed Wind Dir Waves Ship Positions

MiSS Carolyn

Owner: Premier Tugs L.L.C., New Iberia, LA. More information available from US FCC via Universal Licensing System and Coast Guard Vessel Documentation Center.

Last reported at 2017-Dec-17 02:30 UTC. Time now 2017-Dec-17 02:45 UTC.
Position N 29°34' W 090°42'.

Length 18 m.

Type: Towing. MMSI: 367086370.

Date/timePositionNaut miles runAvg speedWind from/ knotsBaromVisibWave heightAir tempDewpointWater temp
2017-Dec-17 02:30N 29°34' W 090°42'0 0.0
2017-Dec-17 02:00N 29°34' W 090°42'0 0.0
2017-Dec-17 01:30N 29°34' W 090°42'0 0.0
2017-Dec-17 01:00N 29°34' W 090°42'0 0.0
2017-Dec-17 00:30N 29°34' W 090°42'0 0.0
2017-Dec-17 00:00N 29°34' W 090°42'0 0.0
2017-Dec-16 23:30N 29°34' W 090°42'0 0.0
2017-Dec-16 23:01N 29°34' W 090°42'0 0.0
2017-Dec-16 22:30N 29°34' W 090°42'0 0.0
2017-Dec-16 22:00N 29°34' W 090°42'0 0.0
2017-Dec-16 21:31N 29°34' W 090°42'0 0.0
2017-Dec-16 21:01N 29°34' W 090°42'0 0.0
2017-Dec-16 20:30N 29°34' W 090°42'0 0.0
2017-Dec-16 20:00N 29°34' W 090°42'0 0.0
2017-Dec-16 19:30N 29°34' W 090°42'0 0.0
2017-Dec-16 19:01N 29°34' W 090°42'0 0.0
2017-Dec-16 18:30N 29°34' W 090°42'0 0.0
2017-Dec-16 18:00N 29°34' W 090°42'0 0.0
2017-Dec-16 17:30N 29°34' W 090°42'0 0.0
2017-Dec-16 17:00N 29°34' W 090°42'0 0.0
2017-Dec-16 16:30N 29°34' W 090°42'0 0.0
2017-Dec-16 16:00N 29°34' W 090°42'0 0.0
2017-Dec-16 15:30N 29°34' W 090°42'0 0.0
2017-Dec-16 15:00N 29°34' W 090°42'0 0.0
2017-Dec-16 14:30N 29°34' W 090°42'0 0.0
2017-Dec-16 14:00N 29°34' W 090°42'0 0.0
2017-Dec-16 13:30N 29°34' W 090°42'0 0.0
2017-Dec-16 13:00N 29°34' W 090°42'0 0.0
2017-Dec-16 12:30N 29°34' W 090°42'0 0.0
2017-Dec-16 12:00N 29°34' W 090°42'0 0.0
2017-Dec-16 11:30N 29°34' W 090°42'0 0.0
2017-Dec-16 11:00N 29°34' W 090°42'0 0.0
2017-Dec-16 10:30N 29°34' W 090°42'0 0.0
2017-Dec-16 10:01N 29°34' W 090°42'0 0.0
2017-Dec-16 09:30N 29°34' W 090°42'0 0.0
2017-Dec-16 09:00N 29°34' W 090°42'0 0.0
2017-Dec-16 08:30N 29°34' W 090°42'0 0.0
2017-Dec-16 08:00N 29°34' W 090°42'0 0.0
2017-Dec-16 07:30N 29°34' W 090°42'0 0.0
2017-Dec-16 07:00N 29°34' W 090°42'0 0.0
2017-Dec-16 06:30N 29°34' W 090°42'0 0.0
2017-Dec-16 06:00N 29°34' W 090°42'0 0.0
2017-Dec-16 05:30N 29°34' W 090°42'0 0.0
2017-Dec-16 05:00N 29°34' W 090°42'0 0.0
2017-Dec-16 04:30N 29°34' W 090°42'0 0.0
2017-Dec-16 04:00N 29°34' W 090°42'0 0.0
2017-Dec-16 03:30N 29°34' W 090°42'0 0.0
2017-Dec-16 03:00N 29°34' W 090°42'0 0.0
2017-Dec-16 02:30N 29°34' W 090°42'0 0.0
2017-Dec-16 02:00N 29°34' W 090°42'0 0.0
2017-Dec-16 01:15N 29°34' W 090°42'0 0.0
2017-Dec-16 01:00N 29°34' W 090°42'0 0.0
2017-Dec-16 00:30N 29°34' W 090°42'0 0.0
2017-Dec-16 00:00N 29°34' W 090°42'0 0.0
2017-Dec-15 23:30N 29°34' W 090°42'0 0.0
2017-Dec-15 23:00N 29°34' W 090°42'0 0.0
2017-Dec-15 22:30N 29°34' W 090°42'0 0.0
2017-Dec-15 22:00N 29°34' W 090°42'0 0.0
2017-Dec-15 21:30N 29°34' W 090°42'0 0.0
2017-Dec-15 21:00N 29°34' W 090°42'1 2.6
2017-Dec-15 20:30N 29°34' W 090°44'3 6.5
2017-Dec-15 20:00N 29°32' W 090°47'4 7.4
2017-Dec-15 19:26N 29°32' W 090°52'  
2017-Dec-13 01:09N 29°32' W 090°51'1 7.4
2017-Dec-13 01:00N 29°32' W 090°49'3 6.8
2017-Dec-13 00:30N 29°33' W 090°45'3 5.3
2017-Dec-13 00:00N 29°34' W 090°43'1 1.1
2017-Dec-12 23:30N 29°34' W 090°42'0 0.0
2017-Dec-12 23:00N 29°34' W 090°42'0 0.0
2017-Dec-12 22:30N 29°34' W 090°42'0 0.0
2017-Dec-12 22:00N 29°34' W 090°42'0 0.0
2017-Dec-12 21:30N 29°34' W 090°42'0 0.0
2017-Dec-12 21:00N 29°34' W 090°42'0 0.0
2017-Dec-12 20:30N 29°34' W 090°42'0 0.0
2017-Dec-12 20:00N 29°34' W 090°42'0 0.0
2017-Dec-12 19:30N 29°34' W 090°42'0 0.0
2017-Dec-12 19:00N 29°34' W 090°42'0 0.0
2017-Dec-12 18:30N 29°34' W 090°42'0 0.0
2017-Dec-12 18:00N 29°34' W 090°42'0 0.0
2017-Dec-12 17:30N 29°34' W 090°42'0 0.0
2017-Dec-12 17:00N 29°34' W 090°42'0 0.0
2017-Dec-12 16:30N 29°34' W 090°42'0 0.0
2017-Dec-12 16:00N 29°34' W 090°42'0 0.0
2017-Dec-12 15:30N 29°34' W 090°42'0 1.0
2017-Dec-12 15:00N 29°33' W 090°43'3 5.2
2017-Dec-12 14:30N 29°36' W 090°43'2 4.5
2017-Dec-12 14:00N 29°36' W 090°40'3 6.3
2017-Dec-12 13:30N 29°35' W 090°37'1 1.8
2017-Dec-12 13:00N 29°35' W 090°36'1 1.2
2017-Dec-12 12:30N 29°35' W 090°36'0 0.0
2017-Dec-12 12:00N 29°35' W 090°36'0 0.0
2017-Dec-12 11:30N 29°35' W 090°36'0 0.0
2017-Dec-12 11:00N 29°35' W 090°36'0 0.0
2017-Dec-12 10:30N 29°35' W 090°36'0 0.0
2017-Dec-12 10:00N 29°35' W 090°36'0 0.0
2017-Dec-12 09:30N 29°35' W 090°36'0 0.0
2017-Dec-12 09:00N 29°35' W 090°36'0 0.0
2017-Dec-12 08:30N 29°35' W 090°36'0 0.0
2017-Dec-12 08:00N 29°35' W 090°36'0 0.0
2017-Dec-12 07:30N 29°35' W 090°36'0 0.0
2017-Dec-12 07:00N 29°35' W 090°36'0 0.0
2017-Dec-12 06:30N 29°35' W 090°36'0 0.0
2017-Dec-12 06:00N 29°35' W 090°36'0 0.0
2017-Dec-12 05:30N 29°35' W 090°36'0 0.0
2017-Dec-12 05:00N 29°35' W 090°36'0 0.0
2017-Dec-12 04:30N 29°35' W 090°36'0 0.0
2017-Dec-12 04:00N 29°35' W 090°36'0 0.0
2017-Dec-12 03:30N 29°35' W 090°36'0 0.0
2017-Dec-12 03:00N 29°35' W 090°36'0 0.0
2017-Dec-12 02:30N 29°35' W 090°36'0 0.0
2017-Dec-12 02:00N 29°35' W 090°36'0 0.0
2017-Dec-12 01:30N 29°35' W 090°36'0 0.0
2017-Dec-12 01:00N 29°35' W 090°36'0 0.0
2017-Dec-12 00:30N 29°35' W 090°36'0 0.0
2017-Dec-12 00:00N 29°35' W 090°36'1 2.5
2017-Dec-11 23:30N 29°35' W 090°38'2 3.9
2017-Dec-11 23:00N 29°36' W 090°40'2 3.3
2017-Dec-11 22:30N 29°37' W 090°41'3 5.1
2017-Dec-11 22:00N 29°34' W 090°43'1 1.9
2017-Dec-11 21:30N 29°34' W 090°42'0 0.0
2017-Dec-11 21:00N 29°34' W 090°42'0 0.0
2017-Dec-11 20:30N 29°34' W 090°42'0 0.0
2017-Dec-11 20:00N 29°34' W 090°42'0 0.0
2017-Dec-11 19:30N 29°34' W 090°42'0 0.0
2017-Dec-11 19:00N 29°34' W 090°42'0 0.0
2017-Dec-11 18:30N 29°34' W 090°42'0 0.0
2017-Dec-11 18:00N 29°34' W 090°42'0 0.0
2017-Dec-11 17:30N 29°34' W 090°42'0 0.0
2017-Dec-11 17:00N 29°34' W 090°42'0 0.0
2017-Dec-11 16:30N 29°34' W 090°42'0 0.0
2017-Dec-11 16:00N 29°34' W 090°42'0 0.0
2017-Dec-11 15:30N 29°34' W 090°42'0 0.0
2017-Dec-11 15:00N 29°34' W 090°42'0 0.0
2017-Dec-11 14:30N 29°34' W 090°42'0 0.9
2017-Dec-11 14:00N 29°34' W 090°43'0 0.9
2017-Dec-11 13:30N 29°34' W 090°42'0 0.0
2017-Dec-11 13:00N 29°34' W 090°42'0 0.0
2017-Dec-11 12:30N 29°34' W 090°42'0 0.0
2017-Dec-11 12:00N 29°34' W 090°42'0 0.0
2017-Dec-11 11:30N 29°34' W 090°42'0 0.0
2017-Dec-11 11:00N 29°34' W 090°42'0 0.0
2017-Dec-11 10:30N 29°34' W 090°42'0 0.0
2017-Dec-11 10:00N 29°34' W 090°42'0 0.0
2017-Dec-11 09:30N 29°34' W 090°42'0 0.0
2017-Dec-11 09:00N 29°34' W 090°42'0 0.0
2017-Dec-11 08:30N 29°34' W 090°42'0 0.0
2017-Dec-11 08:00N 29°34' W 090°42'0 0.0
2017-Dec-11 07:30N 29°34' W 090°42'0 0.0
2017-Dec-11 07:00N 29°34' W 090°42'0 0.0
2017-Dec-11 06:30N 29°34' W 090°42'0 0.0
2017-Dec-11 06:00N 29°34' W 090°42'0 0.0
2017-Dec-11 05:30N 29°34' W 090°42'0 0.0
2017-Dec-11 05:00N 29°34' W 090°42'0 0.0
2017-Dec-11 04:30N 29°34' W 090°42'0 0.0
2017-Dec-11 04:00N 29°34' W 090°42'0 0.0
2017-Dec-11 03:30N 29°34' W 090°42'0 0.0
2017-Dec-11 03:00N 29°34' W 090°42'0 0.0
2017-Dec-11 02:30N 29°34' W 090°42'0 0.0
2017-Dec-11 02:00N 29°34' W 090°42'0 0.0
2017-Dec-11 01:30N 29°34' W 090°42'0 0.5
2017-Dec-11 01:00N 29°34' W 090°42'2 3.3
2017-Dec-11 00:30N 29°34' W 090°44'3 6.6
2017-Dec-11 00:00N 29°32' W 090°47'8 1.0
2017-Dec-10 16:42N 29°34' W 090°56'1 4.0
2017-Dec-10 16:25N 29°33' W 090°55'2 3.8
2017-Dec-10 15:57N 29°32' W 090°53'2 3.6
2017-Dec-10 15:30N 29°32' W 090°51'2 3.7
2017-Dec-10 15:00N 29°32' W 090°49'2 3.7
2017-Dec-10 14:30N 29°32' W 090°47'1 2.6
2017-Dec-10 14:00N 29°33' W 090°46'0 0.7
2017-Dec-10 13:30N 29°33' W 090°45'0 0.0
2017-Dec-10 13:00N 29°33' W 090°45'0 0.0
2017-Dec-10 12:30N 29°33' W 090°45'0 0.0
2017-Dec-10 12:00N 29°33' W 090°45'0 0.0
2017-Dec-10 11:30N 29°33' W 090°45'0 0.0
2017-Dec-10 11:00N 29°33' W 090°45'0 0.0
2017-Dec-10 10:30N 29°33' W 090°45'0 0.0
2017-Dec-10 10:00N 29°33' W 090°45'0 0.0
2017-Dec-10 09:30N 29°33' W 090°45'0 0.0
2017-Dec-10 09:00N 29°33' W 090°45'0 0.0
2017-Dec-10 08:30N 29°33' W 090°45'1 2.1
2017-Dec-10 08:00N 29°34' W 090°45'1 2.9
2017-Dec-10 07:30N 29°34' W 090°43'2 3.1
2017-Dec-10 07:00N 29°36' W 090°43'1 2.4
2017-Dec-10 06:30N 29°37' W 090°42'0 0.7
2017-Dec-10 06:00N 29°37' W 090°41'2 3.6
2017-Dec-10 05:30N 29°36' W 090°40'1 1.4
2017-Dec-10 05:00N 29°36' W 090°39'1 2.7
2017-Dec-10 04:30N 29°35' W 090°38'2 3.2
2017-Dec-10 04:00N 29°35' W 090°36'2 3.6
2017-Dec-10 03:30N 29°34' W 090°34'2 3.7
2017-Dec-10 03:00N 29°34' W 090°32'2 3.6
2017-Dec-10 02:30N 29°34' W 090°30'  
Track history (hours):
 
Tides and Currents Weather Stations Pressure Air Temp Water Temp Dewpoint Dewpoint Depression Visibility Wind Speed Wind Dir Waves Ship Positions

MiSS Carolyn

Owner: Premier Tugs L.L.C., New Iberia, LA. More information available from US FCC via Universal Licensing System and Coast Guard Vessel Documentation Center.

Last reported at 2017-Dec-17 02:30 UTC. Time now 2017-Dec-17 02:45 UTC.
Position N 29°34' W 090°42'.

Length 18 m.

Type: Towing. MMSI: 367086370.

Date/timePositionNaut miles runAvg speedWind from/ knotsBaromVisibWave heightAir tempDewpointWater temp
2017-Dec-17 02:30N 29°34' W 090°42'0 0.0
2017-Dec-17 02:00N 29°34' W 090°42'0 0.0
2017-Dec-17 01:30N 29°34' W 090°42'0 0.0
2017-Dec-17 01:00N 29°34' W 090°42'0 0.0
2017-Dec-17 00:30N 29°34' W 090°42'0 0.0
2017-Dec-17 00:00N 29°34' W 090°42'0 0.0
2017-Dec-16 23:30N 29°34' W 090°42'0 0.0
2017-Dec-16 23:01N 29°34' W 090°42'0 0.0
2017-Dec-16 22:30N 29°34' W 090°42'0 0.0
2017-Dec-16 22:00N 29°34' W 090°42'0 0.0
2017-Dec-16 21:31N 29°34' W 090°42'0 0.0
2017-Dec-16 21:01N 29°34' W 090°42'0 0.0
2017-Dec-16 20:30N 29°34' W 090°42'0 0.0
2017-Dec-16 20:00N 29°34' W 090°42'0 0.0
2017-Dec-16 19:30N 29°34' W 090°42'0 0.0
2017-Dec-16 19:01N 29°34' W 090°42'0 0.0
2017-Dec-16 18:30N 29°34' W 090°42'0 0.0
2017-Dec-16 18:00N 29°34' W 090°42'0 0.0
2017-Dec-16 17:30N 29°34' W 090°42'0 0.0
2017-Dec-16 17:00N 29°34' W 090°42'0 0.0
2017-Dec-16 16:30N 29°34' W 090°42'0 0.0
2017-Dec-16 16:00N 29°34' W 090°42'0 0.0
2017-Dec-16 15:30N 29°34' W 090°42'0 0.0
2017-Dec-16 15:00N 29°34' W 090°42'0 0.0
2017-Dec-16 14:30N 29°34' W 090°42'0 0.0
2017-Dec-16 14:00N 29°34' W 090°42'0 0.0
2017-Dec-16 13:30N 29°34' W 090°42'0 0.0
2017-Dec-16 13:00N 29°34' W 090°42'0 0.0
2017-Dec-16 12:30N 29°34' W 090°42'0 0.0
2017-Dec-16 12:00N 29°34' W 090°42'0 0.0
2017-Dec-16 11:30N 29°34' W 090°42'0 0.0
2017-Dec-16 11:00N 29°34' W 090°42'0 0.0
2017-Dec-16 10:30N 29°34' W 090°42'0 0.0
2017-Dec-16 10:01N 29°34' W 090°42'0 0.0
2017-Dec-16 09:30N 29°34' W 090°42'0 0.0
2017-Dec-16 09:00N 29°34' W 090°42'0 0.0
2017-Dec-16 08:30N 29°34' W 090°42'0 0.0
2017-Dec-16 08:00N 29°34' W 090°42'0 0.0
2017-Dec-16 07:30N 29°34' W 090°42'0 0.0
2017-Dec-16 07:00N 29°34' W 090°42'0 0.0
2017-Dec-16 06:30N 29°34' W 090°42'0 0.0
2017-Dec-16 06:00N 29°34' W 090°42'0 0.0
2017-Dec-16 05:30N 29°34' W 090°42'0 0.0
2017-Dec-16 05:00N 29°34' W 090°42'0 0.0
2017-Dec-16 04:30N 29°34' W 090°42'0 0.0
2017-Dec-16 04:00N 29°34' W 090°42'0 0.0
2017-Dec-16 03:30N 29°34' W 090°42'0 0.0
2017-Dec-16 03:00N 29°34' W 090°42'0 0.0
2017-Dec-16 02:30N 29°34' W 090°42'0 0.0
2017-Dec-16 02:00N 29°34' W 090°42'0 0.0
2017-Dec-16 01:15N 29°34' W 090°42'0 0.0
2017-Dec-16 01:00N 29°34' W 090°42'0 0.0
2017-Dec-16 00:30N 29°34' W 090°42'0 0.0
2017-Dec-16 00:00N 29°34' W 090°42'0 0.0
2017-Dec-15 23:30N 29°34' W 090°42'0 0.0
2017-Dec-15 23:00N 29°34' W 090°42'0 0.0
2017-Dec-15 22:30N 29°34' W 090°42'0 0.0
2017-Dec-15 22:00N 29°34' W 090°42'0 0.0
2017-Dec-15 21:30N 29°34' W 090°42'0 0.0
2017-Dec-15 21:00N 29°34' W 090°42'1 2.6
2017-Dec-15 20:30N 29°34' W 090°44'3 6.5
2017-Dec-15 20:00N 29°32' W 090°47'4 7.4
2017-Dec-15 19:26N 29°32' W 090°52'  
2017-Dec-13 01:09N 29°32' W 090°51'1 7.4
2017-Dec-13 01:00N 29°32' W 090°49'3 6.8
2017-Dec-13 00:30N 29°33' W 090°45'3 5.3
2017-Dec-13 00:00N 29°34' W 090°43'1 1.1
2017-Dec-12 23:30N 29°34' W 090°42'0 0.0
2017-Dec-12 23:00N 29°34' W 090°42'0 0.0
2017-Dec-12 22:30N 29°34' W 090°42'0 0.0
2017-Dec-12 22:00N 29°34' W 090°42'0 0.0
2017-Dec-12 21:30N 29°34' W 090°42'0 0.0
2017-Dec-12 21:00N 29°34' W 090°42'0 0.0
2017-Dec-12 20:30N 29°34' W 090°42'0 0.0
2017-Dec-12 20:00N 29°34' W 090°42'0 0.0
2017-Dec-12 19:30N 29°34' W 090°42'0 0.0
2017-Dec-12 19:00N 29°34' W 090°42'0 0.0
2017-Dec-12 18:30N 29°34' W 090°42'0 0.0
2017-Dec-12 18:00N 29°34' W 090°42'0 0.0
2017-Dec-12 17:30N 29°34' W 090°42'0 0.0
2017-Dec-12 17:00N 29°34' W 090°42'0 0.0
2017-Dec-12 16:30N 29°34' W 090°42'0 0.0
2017-Dec-12 16:00N 29°34' W 090°42'0 0.0
2017-Dec-12 15:30N 29°34' W 090°42'0 1.0
2017-Dec-12 15:00N 29°33' W 090°43'3 5.2
2017-Dec-12 14:30N 29°36' W 090°43'2 4.5
2017-Dec-12 14:00N 29°36' W 090°40'3 6.3
2017-Dec-12 13:30N 29°35' W 090°37'1 1.8
2017-Dec-12 13:00N 29°35' W 090°36'1 1.2
2017-Dec-12 12:30N 29°35' W 090°36'0 0.0
2017-Dec-12 12:00N 29°35' W 090°36'0 0.0
2017-Dec-12 11:30N 29°35' W 090°36'0 0.0
2017-Dec-12 11:00N 29°35' W 090°36'0 0.0
2017-Dec-12 10:30N 29°35' W 090°36'0 0.0
2017-Dec-12 10:00N 29°35' W 090°36'0 0.0
2017-Dec-12 09:30N 29°35' W 090°36'0 0.0
2017-Dec-12 09:00N 29°35' W 090°36'0 0.0
2017-Dec-12 08:30N 29°35' W 090°36'0 0.0
2017-Dec-12 08:00N 29°35' W 090°36'0 0.0
2017-Dec-12 07:30N 29°35' W 090°36'0 0.0
2017-Dec-12 07:00N 29°35' W 090°36'0 0.0
2017-Dec-12 06:30N 29°35' W 090°36'0 0.0
2017-Dec-12 06:00N 29°35' W 090°36'0 0.0
2017-Dec-12 05:30N 29°35' W 090°36'0 0.0
2017-Dec-12 05:00N 29°35' W 090°36'0 0.0
2017-Dec-12 04:30N 29°35' W 090°36'0 0.0
2017-Dec-12 04:00N 29°35' W 090°36'0 0.0
2017-Dec-12 03:30N 29°35' W 090°36'0 0.0
2017-Dec-12 03:00N 29°35' W 090°36'0 0.0
2017-Dec-12 02:30N 29°35' W 090°36'0 0.0
2017-Dec-12 02:00N 29°35' W 090°36'0 0.0
2017-Dec-12 01:30N 29°35' W 090°36'0 0.0
2017-Dec-12 01:00N 29°35' W 090°36'0 0.0
2017-Dec-12 00:30N 29°35' W 090°36'0 0.0
2017-Dec-12 00:00N 29°35' W 090°36'1 2.5
2017-Dec-11 23:30N 29°35' W 090°38'2 3.9
2017-Dec-11 23:00N 29°36' W 090°40'2 3.3
2017-Dec-11 22:30N 29°37' W 090°41'3 5.1
2017-Dec-11 22:00N 29°34' W 090°43'1 1.9
2017-Dec-11 21:30N 29°34' W 090°42'0 0.0
2017-Dec-11 21:00N 29°34' W 090°42'0 0.0
2017-Dec-11 20:30N 29°34' W 090°42'0 0.0
2017-Dec-11 20:00N 29°34' W 090°42'0 0.0
2017-Dec-11 19:30N 29°34' W 090°42'0 0.0
2017-Dec-11 19:00N 29°34' W 090°42'0 0.0
2017-Dec-11 18:30N 29°34' W 090°42'0 0.0
2017-Dec-11 18:00N 29°34' W 090°42'0 0.0
2017-Dec-11 17:30N 29°34' W 090°42'0 0.0
2017-Dec-11 17:00N 29°34' W 090°42'0 0.0
2017-Dec-11 16:30N 29°34' W 090°42'0 0.0
2017-Dec-11 16:00N 29°34' W 090°42'0 0.0
2017-Dec-11 15:30N 29°34' W 090°42'0 0.0
2017-Dec-11 15:00N 29°34' W 090°42'0 0.0
2017-Dec-11 14:30N 29°34' W 090°42'0 0.9
2017-Dec-11 14:00N 29°34' W 090°43'0 0.9
2017-Dec-11 13:30N 29°34' W 090°42'0 0.0
2017-Dec-11 13:00N 29°34' W 090°42'0 0.0
2017-Dec-11 12:30N 29°34' W 090°42'0 0.0
2017-Dec-11 12:00N 29°34' W 090°42'0 0.0
2017-Dec-11 11:30N 29°34' W 090°42'0 0.0
2017-Dec-11 11:00N 29°34' W 090°42'0 0.0
2017-Dec-11 10:30N 29°34' W 090°42'0 0.0
2017-Dec-11 10:00N 29°34' W 090°42'0 0.0
2017-Dec-11 09:30N 29°34' W 090°42'0 0.0
2017-Dec-11 09:00N 29°34' W 090°42'0 0.0
2017-Dec-11 08:30N 29°34' W 090°42'0 0.0
2017-Dec-11 08:00N 29°34' W 090°42'0 0.0
2017-Dec-11 07:30N 29°34' W 090°42'0 0.0
2017-Dec-11 07:00N 29°34' W 090°42'0 0.0
2017-Dec-11 06:30N 29°34' W 090°42'0 0.0
2017-Dec-11 06:00N 29°34' W 090°42'0 0.0
2017-Dec-11 05:30N 29°34' W 090°42'0 0.0
2017-Dec-11 05:00N 29°34' W 090°42'0 0.0
2017-Dec-11 04:30N 29°34' W 090°42'0 0.0
2017-Dec-11 04:00N 29°34' W 090°42'0 0.0
2017-Dec-11 03:30N 29°34' W 090°42'0 0.0
2017-Dec-11 03:00N 29°34' W 090°42'0 0.0
2017-Dec-11 02:30N 29°34' W 090°42'0 0.0
2017-Dec-11 02:00N 29°34' W 090°42'0 0.0
2017-Dec-11 01:30N 29°34' W 090°42'0 0.5
2017-Dec-11 01:00N 29°34' W 090°42'2 3.3
2017-Dec-11 00:30N 29°34' W 090°44'3 6.6
2017-Dec-11 00:00N 29°32' W 090°47'8 1.0
2017-Dec-10 16:42N 29°34' W 090°56'1 4.0
2017-Dec-10 16:25N 29°33' W 090°55'2 3.8
2017-Dec-10 15:57N 29°32' W 090°53'2 3.6
2017-Dec-10 15:30N 29°32' W 090°51'2 3.7
2017-Dec-10 15:00N 29°32' W 090°49'2 3.7
2017-Dec-10 14:30N 29°32' W 090°47'1 2.6
2017-Dec-10 14:00N 29°33' W 090°46'0 0.7
2017-Dec-10 13:30N 29°33' W 090°45'0 0.0
2017-Dec-10 13:00N 29°33' W 090°45'0 0.0
2017-Dec-10 12:30N 29°33' W 090°45'0 0.0
2017-Dec-10 12:00N 29°33' W 090°45'0 0.0
2017-Dec-10 11:30N 29°33' W 090°45'0 0.0
2017-Dec-10 11:00N 29°33' W 090°45'0 0.0
2017-Dec-10 10:30N 29°33' W 090°45'0 0.0
2017-Dec-10 10:00N 29°33' W 090°45'0 0.0
2017-Dec-10 09:30N 29°33' W 090°45'0 0.0
2017-Dec-10 09:00N 29°33' W 090°45'0 0.0
2017-Dec-10 08:30N 29°33' W 090°45'1 2.1
2017-Dec-10 08:00N 29°34' W 090°45'1 2.9
2017-Dec-10 07:30N 29°34' W 090°43'2 3.1
2017-Dec-10 07:00N 29°36' W 090°43'1 2.4
2017-Dec-10 06:30N 29°37' W 090°42'0 0.7
2017-Dec-10 06:00N 29°37' W 090°41'2 3.6
2017-Dec-10 05:30N 29°36' W 090°40'1 1.4
2017-Dec-10 05:00N 29°36' W 090°39'1 2.7
2017-Dec-10 04:30N 29°35' W 090°38'2 3.2
2017-Dec-10 04:00N 29°35' W 090°36'2 3.6
2017-Dec-10 03:30N 29°34' W 090°34'2 3.7
2017-Dec-10 03:00N 29°34' W 090°32'2 3.6
2017-Dec-10 02:30N 29°34' W 090°30'  

Dump ship's entire track history